sensor_id;sensor_type;location;lat;lon;timestamp;temperature;humidity
7572;DHT22;3827;49.928;8.548;2022-09-09T00:00:23;16.50;99.90
7572;DHT22;3827;49.928;8.548;2022-09-09T00:02:55;16.50;99.90
7572;DHT22;3827;49.928;8.548;2022-09-09T00:05:30;16.40;99.90
7572;DHT22;3827;49.928;8.548;2022-09-09T00:08:00;16.40;99.90
7572;DHT22;3827;49.928;8.548;2022-09-09T00:10:31;16.30;99.90
7572;DHT22;3827;49.928;8.548;2022-09-09T00:13:05;16.30;99.90
7572;DHT22;3827;49.928;8.548;2022-09-09T00:15:38;16.20;99.90
7572;DHT22;3827;49.928;8.548;2022-09-09T00:18:14;16.20;99.90
7572;DHT22;3827;49.928;8.548;2022-09-09T00:20:47;16.10;99.90
7572;DHT22;3827;49.928;8.548;2022-09-09T00:23:21;16.10;99.90
7572;DHT22;3827;49.928;8.548;2022-09-09T00:25:54;16.10;99.90
7572;DHT22;3827;49.928;8.548;2022-09-09T00:28:25;16.00;99.90
7572;DHT22;3827;49.928;8.548;2022-09-09T00:30:52;15.90;99.90
7572;DHT22;3827;49.928;8.548;2022-09-09T00:33:22;15.90;99.90
7572;DHT22;3827;49.928;8.548;2022-09-09T00:35:54;15.80;99.90
7572;DHT22;3827;49.928;8.548;2022-09-09T00:38:25;15.80;99.90
7572;DHT22;3827;49.928;8.548;2022-09-09T00:40:59;15.70;99.90
7572;DHT22;3827;49.928;8.548;2022-09-09T00:43:29;15.60;99.90
7572;DHT22;3827;49.928;8.548;2022-09-09T00:49:03;15.50;99.90
7572;DHT22;3827;49.928;8.548;2022-09-09T00:51:41;15.50;99.90
7572;DHT22;3827;49.928;8.548;2022-09-09T00:54:24;15.50;99.90
7572;DHT22;3827;49.928;8.548;2022-09-09T00:57:00;15.50;99.90
7572;DHT22;3827;49.928;8.548;2022-09-09T00:59:39;15.40;99.90
7572;DHT22;3827;49.928;8.548;2022-09-09T01:02:16;15.40;99.90
7572;DHT22;3827;49.928;8.548;2022-09-09T01:04:48;15.40;99.90
7572;DHT22;3827;49.928;8.548;2022-09-09T01:07:17;15.40;99.90
7572;DHT22;3827;49.928;8.548;2022-09-09T01:09:52;15.40;99.90
7572;DHT22;3827;49.928;8.548;2022-09-09T01:12:25;15.60;99.90
7572;DHT22;3827;49.928;8.548;2022-09-09T01:14:58;15.40;99.90
7572;DHT22;3827;49.928;8.548;2022-09-09T01:17:31;15.40;99.90
7572;DHT22;3827;49.928;8.548;2022-09-09T01:20:05;15.30;99.90
7572;DHT22;3827;49.928;8.548;2022-09-09T01:22:40;15.20;99.90
7572;DHT22;3827;49.928;8.548;2022-09-09T01:25:22;15.20;99.90
7572;DHT22;3827;49.928;8.548;2022-09-09T01:27:59;15.20;99.90
7572;DHT22;3827;49.928;8.548;2022-09-09T01:30:28;15.20;99.90
7572;DHT22;3827;49.928;8.548;2022-09-09T01:32:57;15.10;99.90
7572;DHT22;3827;49.928;8.548;2022-09-09T01:35:45;15.20;99.90
7572;DHT22;3827;49.928;8.548;2022-09-09T01:38:14;15.20;99.90
7572;DHT22;3827;49.928;8.548;2022-09-09T01:40:42;15.10;99.90
7572;DHT22;3827;49.928;8.548;2022-09-09T01:43:10;15.10;99.90
7572;DHT22;3827;49.928;8.548;2022-09-09T01:45:38;15.10;99.90
7572;DHT22;3827;49.928;8.548;2022-09-09T01:48:05;15.10;99.90
7572;DHT22;3827;49.928;8.548;2022-09-09T01:50:32;15.00;99.90
7572;DHT22;3827;49.928;8.548;2022-09-09T01:53:00;15.00;99.90
7572;DHT22;3827;49.928;8.548;2022-09-09T01:55:30;14.90;99.90
7572;DHT22;3827;49.928;8.548;2022-09-09T01:58:07;14.90;99.90
7572;DHT22;3827;49.928;8.548;2022-09-09T02:00:44;14.90;99.90
7572;DHT22;3827;49.928;8.548;2022-09-09T02:03:20;14.80;99.90
7572;DHT22;3827;49.928;8.548;2022-09-09T02:05:55;14.90;99.90
7572;DHT22;3827;49.928;8.548;2022-09-09T02:08:26;14.80;99.90
7572;DHT22;3827;49.928;8.548;2022-09-09T02:10:59;14.90;99.90
7572;DHT22;3827;49.928;8.548;2022-09-09T02:13:29;14.80;99.90
7572;DHT22;3827;49.928;8.548;2022-09-09T02:16:02;14.90;99.90
7572;DHT22;3827;49.928;8.548;2022-09-09T02:18:34;14.80;99.90
7572;DHT22;3827;49.928;8.548;2022-09-09T02:21:02;14.80;99.90
7572;DHT22;3827;49.928;8.548;2022-09-09T02:23:29;14.80;99.90
7572;DHT22;3827;49.928;8.548;2022-09-09T02:25:58;14.80;99.90
7572;DHT22;3827;49.928;8.548;2022-09-09T02:28:28;14.90;99.90
7572;DHT22;3827;49.928;8.548;2022-09-09T02:30:58;15.00;99.90
7572;DHT22;3827;49.928;8.548;2022-09-09T02:33:28;15.10;99.90
7572;DHT22;3827;49.928;8.548;2022-09-09T02:35:58;15.20;99.90
7572;DHT22;3827;49.928;8.548;2022-09-09T02:38:30;15.30;99.90
7572;DHT22;3827;49.928;8.548;2022-09-09T02:40:58;15.40;99.90
7572;DHT22;3827;49.928;8.548;2022-09-09T02:43:31;15.40;99.90
7572;DHT22;3827;49.928;8.548;2022-09-09T02:46:05;15.40;99.90
7572;DHT22;3827;49.928;8.548;2022-09-09T02:48:39;15.50;99.90
7572;DHT22;3827;49.928;8.548;2022-09-09T02:51:16;15.50;99.90
7572;DHT22;3827;49.928;8.548;2022-09-09T02:54:06;15.50;99.90
7572;DHT22;3827;49.928;8.548;2022-09-09T02:56:40;15.60;99.90
7572;DHT22;3827;49.928;8.548;2022-09-09T02:59:08;15.60;99.90
7572;DHT22;3827;49.928;8.548;2022-09-09T03:01:36;15.60;99.90
7572;DHT22;3827;49.928;8.548;2022-09-09T03:04:05;15.50;99.90
7572;DHT22;3827;49.928;8.548;2022-09-09T03:06:32;15.50;99.90
7572;DHT22;3827;49.928;8.548;2022-09-09T03:08:59;15.50;99.90
7572;DHT22;3827;49.928;8.548;2022-09-09T03:11:27;15.50;99.90
7572;DHT22;3827;49.928;8.548;2022-09-09T03:13:54;15.50;99.90
7572;DHT22;3827;49.928;8.548;2022-09-09T03:16:22;15.60;99.90
7572;DHT22;3827;49.928;8.548;2022-09-09T03:18:50;15.50;99.90
7572;DHT22;3827;49.928;8.548;2022-09-09T03:21:17;15.60;99.90
7572;DHT22;3827;49.928;8.548;2022-09-09T03:23:44;15.60;99.90
7572;DHT22;3827;49.928;8.548;2022-09-09T03:26:12;15.60;99.90
7572;DHT22;3827;49.928;8.548;2022-09-09T03:28:40;15.60;99.90
7572;DHT22;3827;49.928;8.548;2022-09-09T03:31:07;15.50;99.90
7572;DHT22;3827;49.928;8.548;2022-09-09T03:33:35;15.50;99.90
7572;DHT22;3827;49.928;8.548;2022-09-09T03:36:05;15.60;99.90
7572;DHT22;3827;49.928;8.548;2022-09-09T03:38:32;15.60;99.90
7572;DHT22;3827;49.928;8.548;2022-09-09T03:41:00;15.60;99.90
7572;DHT22;3827;49.928;8.548;2022-09-09T03:43:28;15.60;99.90
7572;DHT22;3827;49.928;8.548;2022-09-09T03:45:55;15.60;99.90
7572;DHT22;3827;49.928;8.548;2022-09-09T03:48:24;15.70;99.90
7572;DHT22;3827;49.928;8.548;2022-09-09T03:50:54;15.70;99.90
7572;DHT22;3827;49.928;8.548;2022-09-09T03:53:23;15.70;99.90
7572;DHT22;3827;49.928;8.548;2022-09-09T03:55:53;15.60;99.90
7572;DHT22;3827;49.928;8.548;2022-09-09T03:58:22;15.50;99.90
7572;DHT22;3827;49.928;8.548;2022-09-09T04:01:00;15.40;99.90
7572;DHT22;3827;49.928;8.548;2022-09-09T04:03:27;15.40;99.90
7572;DHT22;3827;49.928;8.548;2022-09-09T04:05:55;15.30;99.90
7572;DHT22;3827;49.928;8.548;2022-09-09T04:08:25;15.30;99.90
7572;DHT22;3827;49.928;8.548;2022-09-09T04:10:52;15.30;99.90
7572;DHT22;3827;49.928;8.548;2022-09-09T04:13:22;15.20;99.90
7572;DHT22;3827;49.928;8.548;2022-09-09T04:15:51;15.20;99.90
7572;DHT22;3827;49.928;8.548;2022-09-09T04:18:18;15.20;99.90
7572;DHT22;3827;49.928;8.548;2022-09-09T04:20:46;15.10;99.90
7572;DHT22;3827;49.928;8.548;2022-09-09T04:23:13;15.10;99.90
7572;DHT22;3827;49.928;8.548;2022-09-09T04:25:45;15.00;99.90
7572;DHT22;3827;49.928;8.548;2022-09-09T04:28:12;15.00;99.90
7572;DHT22;3827;49.928;8.548;2022-09-09T04:30:39;15.10;99.90
7572;DHT22;3827;49.928;8.548;2022-09-09T04:33:06;15.10;99.90
7572;DHT22;3827;49.928;8.548;2022-09-09T04:35:33;15.20;99.90
7572;DHT22;3827;49.928;8.548;2022-09-09T04:38:00;15.30;99.90
7572;DHT22;3827;49.928;8.548;2022-09-09T04:40:28;15.30;99.90
7572;DHT22;3827;49.928;8.548;2022-09-09T04:42:57;15.30;99.90
7572;DHT22;3827;49.928;8.548;2022-09-09T04:45:24;15.30;99.90
7572;DHT22;3827;49.928;8.548;2022-09-09T04:47:51;15.30;99.90
7572;DHT22;3827;49.928;8.548;2022-09-09T04:50:18;15.20;99.90
7572;DHT22;3827;49.928;8.548;2022-09-09T04:52:45;15.20;99.90
7572;DHT22;3827;49.928;8.548;2022-09-09T04:55:12;15.20;99.90
7572;DHT22;3827;49.928;8.548;2022-09-09T04:57:39;15.10;99.90
7572;DHT22;3827;49.928;8.548;2022-09-09T05:00:09;15.10;99.90
7572;DHT22;3827;49.928;8.548;2022-09-09T05:02:37;15.10;99.90
7572;DHT22;3827;49.928;8.548;2022-09-09T05:05:04;15.10;99.90
7572;DHT22;3827;49.928;8.548;2022-09-09T05:07:31;15.00;99.90
7572;DHT22;3827;49.928;8.548;2022-09-09T05:09:58;15.00;99.90
7572;DHT22;3827;49.928;8.548;2022-09-09T05:12:25;15.00;99.90
7572;DHT22;3827;49.928;8.548;2022-09-09T05:14:52;15.10;99.90
7572;DHT22;3827;49.928;8.548;2022-09-09T05:17:20;15.10;99.90
7572;DHT22;3827;49.928;8.548;2022-09-09T05:19:47;15.20;99.90
7572;DHT22;3827;49.928;8.548;2022-09-09T05:22:18;15.20;99.90
7572;DHT22;3827;49.928;8.548;2022-09-09T05:24:45;15.30;99.90
7572;DHT22;3827;49.928;8.548;2022-09-09T05:27:12;15.30;99.90
7572;DHT22;3827;49.928;8.548;2022-09-09T05:29:39;15.40;99.90
7572;DHT22;3827;49.928;8.548;2022-09-09T05:32:08;15.50;99.90
7572;DHT22;3827;49.928;8.548;2022-09-09T05:34:36;15.40;99.90
7572;DHT22;3827;49.928;8.548;2022-09-09T05:37:04;15.50;99.90
7572;DHT22;3827;49.928;8.548;2022-09-09T05:39:33;15.40;99.90
7572;DHT22;3827;49.928;8.548;2022-09-09T05:42:01;15.50;99.90
7572;DHT22;3827;49.928;8.548;2022-09-09T05:44:30;15.50;99.90
7572;DHT22;3827;49.928;8.548;2022-09-09T05:46:57;15.40;99.90
7572;DHT22;3827;49.928;8.548;2022-09-09T05:49:24;15.40;99.90
7572;DHT22;3827;49.928;8.548;2022-09-09T05:51:52;15.40;99.90
7572;DHT22;3827;49.928;8.548;2022-09-09T05:54:19;15.30;99.90
7572;DHT22;3827;49.928;8.548;2022-09-09T05:56:46;15.30;99.90
7572;DHT22;3827;49.928;8.548;2022-09-09T05:59:14;15.30;99.90
7572;DHT22;3827;49.928;8.548;2022-09-09T06:01:41;15.30;99.90
7572;DHT22;3827;49.928;8.548;2022-09-09T06:04:08;15.30;99.90
7572;DHT22;3827;49.928;8.548;2022-09-09T06:06:36;15.40;99.90
7572;DHT22;3827;49.928;8.548;2022-09-09T06:09:07;15.50;99.90
7572;DHT22;3827;49.928;8.548;2022-09-09T06:11:36;15.80;99.90
7572;DHT22;3827;49.928;8.548;2022-09-09T06:14:05;16.00;99.90
7572;DHT22;3827;49.928;8.548;2022-09-09T06:16:32;16.20;99.90
7572;DHT22;3827;49.928;8.548;2022-09-09T06:19:00;16.30;99.90
7572;DHT22;3827;49.928;8.548;2022-09-09T06:21:29;16.50;99.90
7572;DHT22;3827;49.928;8.548;2022-09-09T06:23:58;16.60;99.90
7572;DHT22;3827;49.928;8.548;2022-09-09T06:26:28;16.70;18.70
7572;DHT22;3827;49.928;8.548;2022-09-09T06:28:56;16.80;1.00
7572;DHT22;3827;49.928;8.548;2022-09-09T06:31:25;16.90;1.00
7572;DHT22;3827;49.928;8.548;2022-09-09T06:33:56;17.00;1.00
7572;DHT22;3827;49.928;8.548;2022-09-09T06:36:24;17.00;99.90
7572;DHT22;3827;49.928;8.548;2022-09-09T06:38:51;17.20;1.00
7572;DHT22;3827;49.928;8.548;2022-09-09T06:41:20;17.20;1.00
7572;DHT22;3827;49.928;8.548;2022-09-09T06:43:49;17.40;1.00
7572;DHT22;3827;49.928;8.548;2022-09-09T06:46:17;17.30;99.90
7572;DHT22;3827;49.928;8.548;2022-09-09T06:48:45;17.30;99.90
7572;DHT22;3827;49.928;8.548;2022-09-09T06:51:13;17.40;1.00
7572;DHT22;3827;49.928;8.548;2022-09-09T06:53:42;17.50;99.90
7572;DHT22;3827;49.928;8.548;2022-09-09T06:56:20;17.60;1.00
7572;DHT22;3827;49.928;8.548;2022-09-09T06:58:50;17.60;1.00
7572;DHT22;3827;49.928;8.548;2022-09-09T07:01:19;17.60;1.00
7572;DHT22;3827;49.928;8.548;2022-09-09T07:03:47;17.50;1.00
7572;DHT22;3827;49.928;8.548;2022-09-09T07:06:17;17.50;1.00
7572;DHT22;3827;49.928;8.548;2022-09-09T07:08:48;17.40;99.90
7572;DHT22;3827;49.928;8.548;2022-09-09T07:11:16;17.40;99.90
7572;DHT22;3827;49.928;8.548;2022-09-09T07:13:42;17.40;99.90
7572;DHT22;3827;49.928;8.548;2022-09-09T07:16:12;17.40;99.90
7572;DHT22;3827;49.928;8.548;2022-09-09T07:18:40;17.40;99.90
7572;DHT22;3827;49.928;8.548;2022-09-09T07:21:08;17.50;1.00
7572;DHT22;3827;49.928;8.548;2022-09-09T07:23:35;17.60;1.00
7572;DHT22;3827;49.928;8.548;2022-09-09T07:26:02;17.80;99.90
7572;DHT22;3827;49.928;8.548;2022-09-09T07:28:29;17.90;99.90
7572;DHT22;3827;49.928;8.548;2022-09-09T07:30:58;18.10;68.80
7572;DHT22;3827;49.928;8.548;2022-09-09T07:33:28;18.10;1.00
7572;DHT22;3827;49.928;8.548;2022-09-09T07:36:02;18.20;1.00
7572;DHT22;3827;49.928;8.548;2022-09-09T07:38:30;18.20;1.00
7572;DHT22;3827;49.928;8.548;2022-09-09T07:41:03;18.20;1.00
7572;DHT22;3827;49.928;8.548;2022-09-09T07:43:30;18.30;1.00
7572;DHT22;3827;49.928;8.548;2022-09-09T07:45:57;18.40;99.90
7572;DHT22;3827;49.928;8.548;2022-09-09T07:48:24;18.50;99.90
7572;DHT22;3827;49.928;8.548;2022-09-09T07:51:02;18.60;96.90
7572;DHT22;3827;49.928;8.548;2022-09-09T07:53:28;18.70;1.00
7572;DHT22;3827;49.928;8.548;2022-09-09T07:56:02;18.70;1.00
7572;DHT22;3827;49.928;8.548;2022-09-09T07:58:29;18.70;1.00
7572;DHT22;3827;49.928;8.548;2022-09-09T08:00:56;18.70;1.00
7572;DHT22;3827;49.928;8.548;2022-09-09T08:03:23;18.70;1.00
7572;DHT22;3827;49.928;8.548;2022-09-09T08:05:49;18.80;1.00
7572;DHT22;3827;49.928;8.548;2022-09-09T08:08:18;19.00;1.00
7572;DHT22;3827;49.928;8.548;2022-09-09T08:10:45;19.10;1.00
7572;DHT22;3827;49.928;8.548;2022-09-09T08:13:12;19.20;1.00
7572;DHT22;3827;49.928;8.548;2022-09-09T08:15:39;19.20;1.00
7572;DHT22;3827;49.928;8.548;2022-09-09T08:18:07;19.20;1.00
7572;DHT22;3827;49.928;8.548;2022-09-09T08:20:36;19.40;1.00
7572;DHT22;3827;49.928;8.548;2022-09-09T08:23:03;19.40;1.00
7572;DHT22;3827;49.928;8.548;2022-09-09T08:25:31;19.40;1.00
7572;DHT22;3827;49.928;8.548;2022-09-09T08:28:00;19.50;1.00
7572;DHT22;3827;49.928;8.548;2022-09-09T08:30:27;19.80;1.00
7572;DHT22;3827;49.928;8.548;2022-09-09T08:32:55;19.80;1.00
7572;DHT22;3827;49.928;8.548;2022-09-09T08:35:22;19.90;1.00
7572;DHT22;3827;49.928;8.548;2022-09-09T08:37:53;19.90;99.90
7572;DHT22;3827;49.928;8.548;2022-09-09T08:40:25;19.90;1.00
7572;DHT22;3827;49.928;8.548;2022-09-09T08:42:55;20.00;99.90
7572;DHT22;3827;49.928;8.548;2022-09-09T08:45:31;20.20;99.90
7572;DHT22;3827;49.928;8.548;2022-09-09T08:48:16;20.20;99.90
7572;DHT22;3827;49.928;8.548;2022-09-09T08:50:44;20.20;99.90
7572;DHT22;3827;49.928;8.548;2022-09-09T08:53:17;20.20;99.90
7572;DHT22;3827;49.928;8.548;2022-09-09T08:55:47;20.30;99.90
7572;DHT22;3827;49.928;8.548;2022-09-09T08:58:17;20.50;99.90
7572;DHT22;3827;49.928;8.548;2022-09-09T09:00:57;20.60;99.90
7572;DHT22;3827;49.928;8.548;2022-09-09T09:03:33;20.60;99.90
7572;DHT22;3827;49.928;8.548;2022-09-09T09:06:06;20.80;99.90
7572;DHT22;3827;49.928;8.548;2022-09-09T09:08:41;21.30;99.90
7572;DHT22;3827;49.928;8.548;2022-09-09T09:11:10;21.40;1.00
7572;DHT22;3827;49.928;8.548;2022-09-09T09:13:42;21.30;20.10
7572;DHT22;3827;49.928;8.548;2022-09-09T09:16:19;21.20;9.10
7572;DHT22;3827;49.928;8.548;2022-09-09T09:18:48;21.30;28.40
7572;DHT22;3827;49.928;8.548;2022-09-09T09:21:19;21.30;1.00
7572;DHT22;3827;49.928;8.548;2022-09-09T09:23:55;21.30;1.00
7572;DHT22;3827;49.928;8.548;2022-09-09T09:26:24;21.40;1.00
7572;DHT22;3827;49.928;8.548;2022-09-09T09:28:55;21.50;1.00
7572;DHT22;3827;49.928;8.548;2022-09-09T09:31:23;21.60;1.00
7572;DHT22;3827;49.928;8.548;2022-09-09T09:33:54;21.80;1.00
7572;DHT22;3827;49.928;8.548;2022-09-09T09:36:21;21.90;1.00
7572;DHT22;3827;49.928;8.548;2022-09-09T09:38:55;21.70;1.00
7572;DHT22;3827;49.928;8.548;2022-09-09T09:41:34;21.80;1.00
7572;DHT22;3827;49.928;8.548;2022-09-09T09:44:03;21.80;1.00
7572;DHT22;3827;49.928;8.548;2022-09-09T09:46:31;21.60;1.00
7572;DHT22;3827;49.928;8.548;2022-09-09T09:48:59;21.40;1.00
7572;DHT22;3827;49.928;8.548;2022-09-09T09:51:27;21.20;1.00
7572;DHT22;3827;49.928;8.548;2022-09-09T09:54:13;20.90;99.90
7572;DHT22;3827;49.928;8.548;2022-09-09T09:56:42;20.70;88.20
7572;DHT22;3827;49.928;8.548;2022-09-09T09:59:22;20.40;99.90
7572;DHT22;3827;49.928;8.548;2022-09-09T10:01:49;20.00;99.90
7572;DHT22;3827;49.928;8.548;2022-09-09T10:04:20;19.80;99.90
7572;DHT22;3827;49.928;8.548;2022-09-09T10:06:49;19.70;99.90
7572;DHT22;3827;49.928;8.548;2022-09-09T10:09:23;19.70;99.90
7572;DHT22;3827;49.928;8.548;2022-09-09T10:11:57;19.80;99.90
7572;DHT22;3827;49.928;8.548;2022-09-09T10:14:36;19.80;99.90
7572;DHT22;3827;49.928;8.548;2022-09-09T10:17:15;19.90;99.90
7572;DHT22;3827;49.928;8.548;2022-09-09T10:19:55;20.50;99.90
7572;DHT22;3827;49.928;8.548;2022-09-09T10:22:28;21.50;1.00
7572;DHT22;3827;49.928;8.548;2022-09-09T10:25:14;22.20;1.00
7572;DHT22;3827;49.928;8.548;2022-09-09T10:27:56;22.80;1.00
7572;DHT22;3827;49.928;8.548;2022-09-09T10:30:41;23.00;1.00
7572;DHT22;3827;49.928;8.548;2022-09-09T10:33:21;23.30;1.00
7572;DHT22;3827;49.928;8.548;2022-09-09T10:36:00;23.20;1.00
7572;DHT22;3827;49.928;8.548;2022-09-09T10:38:37;23.20;1.00
7572;DHT22;3827;49.928;8.548;2022-09-09T10:41:20;23.70;1.00
7572;DHT22;3827;49.928;8.548;2022-09-09T10:44:25;24.50;1.00
7572;DHT22;3827;49.928;8.548;2022-09-09T10:47:15;24.80;1.00
7572;DHT22;3827;49.928;8.548;2022-09-09T10:50:07;25.20;1.00
7572;DHT22;3827;49.928;8.548;2022-09-09T10:52:44;25.80;1.00
7572;DHT22;3827;49.928;8.548;2022-09-09T10:55:18;25.90;1.00
7572;DHT22;3827;49.928;8.548;2022-09-09T10:57:47;25.40;1.00
7572;DHT22;3827;49.928;8.548;2022-09-09T11:00:18;24.50;1.00
7572;DHT22;3827;49.928;8.548;2022-09-09T11:02:49;24.00;1.00
7572;DHT22;3827;49.928;8.548;2022-09-09T11:05:20;23.60;1.00
7572;DHT22;3827;49.928;8.548;2022-09-09T11:07:52;23.30;1.00
7572;DHT22;3827;49.928;8.548;2022-09-09T11:10:28;23.10;1.00
7572;DHT22;3827;49.928;8.548;2022-09-09T11:13:02;22.70;1.00
7572;DHT22;3827;49.928;8.548;2022-09-09T11:15:36;22.80;1.00
7572;DHT22;3827;49.928;8.548;2022-09-09T11:18:13;22.80;1.00
7572;DHT22;3827;49.928;8.548;2022-09-09T11:20:40;23.10;1.00
7572;DHT22;3827;49.928;8.548;2022-09-09T11:23:12;22.90;1.00
7572;DHT22;3827;49.928;8.548;2022-09-09T11:25:41;22.80;1.00
7572;DHT22;3827;49.928;8.548;2022-09-09T11:28:31;22.40;1.00
7572;DHT22;3827;49.928;8.548;2022-09-09T11:31:08;22.10;1.00
7572;DHT22;3827;49.928;8.548;2022-09-09T11:33:55;21.80;1.00
7572;DHT22;3827;49.928;8.548;2022-09-09T11:36:43;21.30;1.00
7572;DHT22;3827;49.928;8.548;2022-09-09T11:39:37;21.30;1.00
7572;DHT22;3827;49.928;8.548;2022-09-09T11:42:07;21.20;1.00
7572;DHT22;3827;49.928;8.548;2022-09-09T11:44:34;21.00;1.00
7572;DHT22;3827;49.928;8.548;2022-09-09T11:47:01;21.30;1.00
7572;DHT22;3827;49.928;8.548;2022-09-09T11:49:40;20.90;1.00
7572;DHT22;3827;49.928;8.548;2022-09-09T11:52:11;21.40;1.00
7572;DHT22;3827;49.928;8.548;2022-09-09T11:54:46;21.80;1.00
7572;DHT22;3827;49.928;8.548;2022-09-09T11:57:24;22.20;1.00
7572;DHT22;3827;49.928;8.548;2022-09-09T11:59:52;22.30;1.00
7572;DHT22;3827;49.928;8.548;2022-09-09T12:02:23;22.20;1.00
7572;DHT22;3827;49.928;8.548;2022-09-09T12:04:59;21.90;1.00
7572;DHT22;3827;49.928;8.548;2022-09-09T12:07:33;21.80;1.00
7572;DHT22;3827;49.928;8.548;2022-09-09T12:10:04;21.50;1.00
7572;DHT22;3827;49.928;8.548;2022-09-09T12:12:33;21.20;1.00
7572;DHT22;3827;49.928;8.548;2022-09-09T12:15:23;21.10;1.00
7572;DHT22;3827;49.928;8.548;2022-09-09T12:17:54;21.00;1.00
7572;DHT22;3827;49.928;8.548;2022-09-09T12:20:26;21.20;1.00
7572;DHT22;3827;49.928;8.548;2022-09-09T12:23:12;21.30;1.00
7572;DHT22;3827;49.928;8.548;2022-09-09T12:25:53;21.50;1.00
7572;DHT22;3827;49.928;8.548;2022-09-09T12:28:25;21.70;1.00
7572;DHT22;3827;49.928;8.548;2022-09-09T12:30:58;21.70;1.00
7572;DHT22;3827;49.928;8.548;2022-09-09T12:33:34;21.70;1.00
7572;DHT22;3827;49.928;8.548;2022-09-09T12:36:03;21.80;1.00
7572;DHT22;3827;49.928;8.548;2022-09-09T12:38:35;21.50;1.00
7572;DHT22;3827;49.928;8.548;2022-09-09T12:41:02;21.30;1.00
7572;DHT22;3827;49.928;8.548;2022-09-09T12:43:30;21.30;1.00
7572;DHT22;3827;49.928;8.548;2022-09-09T12:46:00;21.10;1.00
7572;DHT22;3827;49.928;8.548;2022-09-09T12:48:32;21.10;1.00
7572;DHT22;3827;49.928;8.548;2022-09-09T12:51:04;21.00;1.00
7572;DHT22;3827;49.928;8.548;2022-09-09T12:53:34;21.00;1.00
7572;DHT22;3827;49.928;8.548;2022-09-09T12:56:03;20.80;1.00
7572;DHT22;3827;49.928;8.548;2022-09-09T12:58:33;20.40;1.00
7572;DHT22;3827;49.928;8.548;2022-09-09T13:01:01;19.90;1.00
7572;DHT22;3827;49.928;8.548;2022-09-09T13:03:31;19.60;1.00
7572;DHT22;3827;49.928;8.548;2022-09-09T13:05:59;19.20;1.00
7572;DHT22;3827;49.928;8.548;2022-09-09T13:08:38;18.90;1.00
7572;DHT22;3827;49.928;8.548;2022-09-09T13:11:09;18.60;1.00
7572;DHT22;3827;49.928;8.548;2022-09-09T13:13:39;18.30;1.00
7572;DHT22;3827;49.928;8.548;2022-09-09T13:16:20;18.30;1.00
7572;DHT22;3827;49.928;8.548;2022-09-09T13:18:47;18.20;1.00
7572;DHT22;3827;49.928;8.548;2022-09-09T13:21:14;18.20;1.00
7572;DHT22;3827;49.928;8.548;2022-09-09T13:23:48;18.10;99.90
7572;DHT22;3827;49.928;8.548;2022-09-09T13:26:23;18.10;99.90
7572;DHT22;3827;49.928;8.548;2022-09-09T13:28:51;18.10;99.90
7572;DHT22;3827;49.928;8.548;2022-09-09T13:31:21;18.20;99.90
7572;DHT22;3827;49.928;8.548;2022-09-09T13:33:48;18.20;99.90
7572;DHT22;3827;49.928;8.548;2022-09-09T13:36:15;18.30;99.90
7572;DHT22;3827;49.928;8.548;2022-09-09T13:38:56;18.50;99.90
7572;DHT22;3827;49.928;8.548;2022-09-09T13:41:28;19.30;1.00
7572;DHT22;3827;49.928;8.548;2022-09-09T13:43:57;20.30;1.00
7572;DHT22;3827;49.928;8.548;2022-09-09T13:46:32;21.00;1.00
7572;DHT22;3827;49.928;8.548;2022-09-09T13:49:02;21.60;1.00
7572;DHT22;3827;49.928;8.548;2022-09-09T13:51:33;22.00;1.00
7572;DHT22;3827;49.928;8.548;2022-09-09T13:54:04;22.50;1.00
7572;DHT22;3827;49.928;8.548;2022-09-09T13:56:32;22.40;1.00
7572;DHT22;3827;49.928;8.548;2022-09-09T13:58:59;21.90;1.00
7572;DHT22;3827;49.928;8.548;2022-09-09T14:01:25;21.60;1.00
7572;DHT22;3827;49.928;8.548;2022-09-09T14:03:53;21.30;1.00
7572;DHT22;3827;49.928;8.548;2022-09-09T14:06:20;21.30;1.00
7572;DHT22;3827;49.928;8.548;2022-09-09T14:08:48;21.30;1.00
7572;DHT22;3827;49.928;8.548;2022-09-09T14:11:19;21.30;1.00
7572;DHT22;3827;49.928;8.548;2022-09-09T14:13:47;21.50;1.00
7572;DHT22;3827;49.928;8.548;2022-09-09T14:16:15;21.30;1.00
7572;DHT22;3827;49.928;8.548;2022-09-09T14:18:42;21.30;1.00
7572;DHT22;3827;49.928;8.548;2022-09-09T14:21:10;21.20;1.00
7572;DHT22;3827;49.928;8.548;2022-09-09T14:23:37;21.10;1.00
7572;DHT22;3827;49.928;8.548;2022-09-09T14:26:04;21.00;1.00
7572;DHT22;3827;49.928;8.548;2022-09-09T14:28:33;20.90;1.00
7572;DHT22;3827;49.928;8.548;2022-09-09T14:31:00;20.80;1.00
7572;DHT22;3827;49.928;8.548;2022-09-09T14:33:27;20.50;1.00
7572;DHT22;3827;49.928;8.548;2022-09-09T14:35:56;20.30;1.00
7572;DHT22;3827;49.928;8.548;2022-09-09T14:38:23;20.10;1.00
7572;DHT22;3827;49.928;8.548;2022-09-09T14:40:50;20.00;1.00
7572;DHT22;3827;49.928;8.548;2022-09-09T14:43:17;19.80;1.00
7572;DHT22;3827;49.928;8.548;2022-09-09T14:45:48;19.70;1.00
7572;DHT22;3827;49.928;8.548;2022-09-09T14:48:17;19.90;1.00
7572;DHT22;3827;49.928;8.548;2022-09-09T14:50:44;20.00;1.00
7572;DHT22;3827;49.928;8.548;2022-09-09T14:53:11;20.00;1.00
7572;DHT22;3827;49.928;8.548;2022-09-09T14:55:38;20.20;1.00
7572;DHT22;3827;49.928;8.548;2022-09-09T14:58:05;19.90;1.00
7572;DHT22;3827;49.928;8.548;2022-09-09T15:00:34;20.00;1.00
7572;DHT22;3827;49.928;8.548;2022-09-09T15:03:03;19.90;1.50
7572;DHT22;3827;49.928;8.548;2022-09-09T15:05:29;19.90;86.90
7572;DHT22;3827;49.928;8.548;2022-09-09T15:07:57;19.90;99.90
7572;DHT22;3827;49.928;8.548;2022-09-09T15:10:25;19.90;99.90
7572;DHT22;3827;49.928;8.548;2022-09-09T15:12:52;20.00;99.90
7572;DHT22;3827;49.928;8.548;2022-09-09T15:15:18;20.00;1.00
7572;DHT22;3827;49.928;8.548;2022-09-09T15:17:45;20.10;99.90
7572;DHT22;3827;49.928;8.548;2022-09-09T15:20:13;20.30;1.00
7572;DHT22;3827;49.928;8.548;2022-09-09T15:22:42;20.50;99.90
7572;DHT22;3827;49.928;8.548;2022-09-09T15:25:08;20.60;99.90
7572;DHT22;3827;49.928;8.548;2022-09-09T15:27:36;20.40;99.90
7572;DHT22;3827;49.928;8.548;2022-09-09T15:30:05;20.30;97.50
7572;DHT22;3827;49.928;8.548;2022-09-09T15:32:32;20.20;85.20
7572;DHT22;3827;49.928;8.548;2022-09-09T15:35:00;20.20;99.90
7572;DHT22;3827;49.928;8.548;2022-09-09T15:37:28;20.30;99.90
7572;DHT22;3827;49.928;8.548;2022-09-09T15:39:56;20.30;99.90
7572;DHT22;3827;49.928;8.548;2022-09-09T15:42:26;20.40;99.90
7572;DHT22;3827;49.928;8.548;2022-09-09T15:44:52;20.30;99.90
7572;DHT22;3827;49.928;8.548;2022-09-09T15:47:19;20.10;99.90
7572;DHT22;3827;49.928;8.548;2022-09-09T15:49:46;20.10;99.90
7572;DHT22;3827;49.928;8.548;2022-09-09T15:52:13;19.90;99.90
7572;DHT22;3827;49.928;8.548;2022-09-09T15:54:41;19.90;99.90
7572;DHT22;3827;49.928;8.548;2022-09-09T15:57:12;19.70;99.90
7572;DHT22;3827;49.928;8.548;2022-09-09T15:59:39;19.70;99.90
7572;DHT22;3827;49.928;8.548;2022-09-09T16:02:06;19.60;1.00
7572;DHT22;3827;49.928;8.548;2022-09-09T16:04:33;19.60;1.00
7572;DHT22;3827;49.928;8.548;2022-09-09T16:07:02;19.60;1.00
7572;DHT22;3827;49.928;8.548;2022-09-09T16:09:30;19.60;1.00
7572;DHT22;3827;49.928;8.548;2022-09-09T16:11:59;19.50;1.00
7572;DHT22;3827;49.928;8.548;2022-09-09T16:14:28;19.50;1.00
7572;DHT22;3827;49.928;8.548;2022-09-09T16:16:59;19.80;1.00
7572;DHT22;3827;49.928;8.548;2022-09-09T16:19:26;19.60;1.00
7572;DHT22;3827;49.928;8.548;2022-09-09T16:21:53;19.80;1.00
7572;DHT22;3827;49.928;8.548;2022-09-09T16:24:20;19.60;1.00
7572;DHT22;3827;49.928;8.548;2022-09-09T16:26:50;19.60;1.00
7572;DHT22;3827;49.928;8.548;2022-09-09T16:29:19;19.50;1.00
7572;DHT22;3827;49.928;8.548;2022-09-09T16:31:47;19.30;1.00
7572;DHT22;3827;49.928;8.548;2022-09-09T16:34:15;19.20;1.00